Chantilly, VA (20151)

1:41 AM EDT on September 01, 2016 (GMT -0400)
Ridings at Blue Springs | | Change Station

Elev 303 ft 38.90 °N, 77.48 °W | Updated 31 seconds ago

Overcast
Overcast
76.0 °F
Feels Like 77 °F
N
0.0
Wind Variable Wind from SSE
Gusts 0.0 mph

Today
High -- | Low -- °F
--% Chance of Precip.
Yesterday
High -- | Low -- °F
Precip. -- in
Pressure 29.88 in
Visibility 10.0 miles
Clouds Scattered Clouds 3800 ft
Mostly Cloudy 5000 ft
Overcast 11000 ft
Heat Index 77 °F
Dew Point 70 °F
Humidity 82%
Rainfall 0.00 in
Snow Depth Not available.
6:39 AM 7:39 PM
Waning Crescent, 0% visible
METAR KIAD 010452Z 00000KT 10SM -RA SCT038 BKN050CB OVC110 23/22 A2989 RMK AO2 RAB29 SLP117 VCTS S MOV E P0002 T02330217 403330178
Pressure 29.88 in
Visibility 10.0 miles
Clouds Scattered Clouds 3800 ft
Mostly Cloudy 5000 ft
Overcast 11000 ft
Heat Index 77 °F
Dew Point 70 °F
Humidity 82%
Rainfall 0.00 in
Snow Depth Not available.
6:39 AM 7:39 PM
Waning Crescent, 0% visible
METAR KIAD 010452Z 00000KT 10SM -RA SCT038 BKN050CB OVC110 23/22 A2989 RMK AO2 RAB29 SLP117 VCTS S MOV E P0002 T02330217 403330178

10-Day Weather Forecast

Almanac

Astronomy

Sep. 01, 2016 Rise Set
Actual Time
Civil Twilight
Nautical Twilight
Astronomical Twilight
Moon
Length of Visible Light
Length of Day
Tomorrow will be .
, % of the Moon is Illuminated

Today's Extremes

State Highs State Lows

Community

WunderPhotos

Upload Photos

1,936,313 photos uploaded!

WunderBlog® & News

Nearby

Air Quality

  Air Quality AQ Index Pollutant
Not available.

Snow Depth

Station Depth Elevation

Earthquake Activity

City Distance Mag. Time & Date
Minimum magnitude displayed is 2.5.

Coastal Water Temperatures

Place Temperature

Stations

Nearby Weather Stations

Station Location Temp. Windchill Dew Point Humidity Wind Precip. Elev Updated Type
                   

Watches & Warnings

There are currently no watches in effect.